Terminal Aerodrome Forecast
Issued by NWS

Home | Current Version | Previous Version | Text Only | Print | Product List | Glossary On
Versions: 1 2 3 4 5 6 7 8 9 10 11 12 13 14 15 16 17 18 19 20 21 22 23 24
000
FTUS45 KBOU 211122
TAFAPA
TAF
KAPA 211122Z 2112/2212 20011KT P6SM FEW140
     FM211500 VRB06KT P6SM FEW140 SCT200
     FM211900 15009KT P6SM SCT080 BKN150
     FM220000 29011KT P6SM SCT070 BKN120 PROB30 2200/2204 -SHRA
      SCT060 BKN080
     FM220400 31011KT P6SM SCT080 BKN150
     FM220700 19009KT P6SM SCT080 BKN150=

USA.gov is the U.S. government's official web portal to all federal, state and local government web resources and services.